createdAt,value
2024-04-04T00:12:44.030Z,22.7
2024-04-04T00:18:14.850Z,22.8
2024-04-04T00:23:45.077Z,22.8
2024-04-04T00:29:15.579Z,22.8
2024-04-04T00:34:45.032Z,22.8
2024-04-04T00:40:15.517Z,22.7
2024-04-04T00:45:46.185Z,22.7
2024-04-04T00:51:16.598Z,22.8
2024-04-04T00:56:47.094Z,22.7
2024-04-04T01:07:48.182Z,22.7
2024-04-04T01:13:18.653Z,22.7
2024-04-04T01:18:49.472Z,22.7
2024-04-04T01:24:19.882Z,22.7
2024-04-04T01:29:50.349Z,22.7
2024-04-04T01:35:20.941Z,22.7
2024-04-04T01:40:50.433Z,22.7
2024-04-04T01:46:20.925Z,22.6
2024-04-04T01:51:51.456Z,22.6
2024-04-04T01:57:20.884Z,22.6
2024-04-04T02:02:51.353Z,22.6
2024-04-04T02:08:21.938Z,22.6
2024-04-04T02:19:22.973Z,22.6
2024-04-04T02:24:53.580Z,22.6
2024-04-04T02:30:24.023Z,22.6
2024-04-04T02:35:54.515Z,22.6
2024-04-04T02:41:24.017Z,22.5
2024-04-04T02:46:54.491Z,22.5
2024-04-04T02:52:24.967Z,22.6
2024-04-04T02:57:54.491Z,22.6
2024-04-04T03:03:24.911Z,22.6
2024-04-04T03:08:55.387Z,22.6
2024-04-04T03:14:25.988Z,22.6
2024-04-04T03:19:56.556Z,22.6
2024-04-04T03:25:27.140Z,22.4
2024-04-04T03:30:57.648Z,22.4
2024-04-04T03:36:28.077Z,22.3
2024-04-04T03:47:29.210Z,22.3
2024-04-04T03:52:59.664Z,22.3
2024-04-04T03:58:30.252Z,22.3
2024-04-04T04:04:00.771Z,22.3
2024-04-04T04:09:31.175Z,22.3
2024-04-04T04:15:00.658Z,22.3
2024-04-04T04:20:31.188Z,22.2
2024-04-04T04:26:01.628Z,22.2
2024-04-04T04:31:31.113Z,22.2
2024-04-04T04:37:01.597Z,22.3
2024-04-04T04:42:31.085Z,22.2
2024-04-04T04:48:01.535Z,22.2
2024-04-04T04:53:32.024Z,22.2
2024-04-04T04:59:02.635Z,22.2
2024-04-04T05:04:33.077Z,22.2
2024-04-04T05:10:03.717Z,22.2
2024-04-04T05:15:34.173Z,22.2
2024-04-04T05:21:04.668Z,22.2
2024-04-04T05:32:04.640Z,22.2
2024-04-04T05:37:35.078Z,22.1
2024-04-04T05:43:05.703Z,22.2
2024-04-04T05:48:36.150Z,22.2
2024-04-04T05:54:06.643Z,22.2
2024-04-04T05:59:37.257Z,22.2
2024-04-04T06:05:07.717Z,22.2
2024-04-04T06:10:38.290Z,22.1
2024-04-04T06:16:08.781Z,22.1
2024-04-04T06:21:39.235Z,22.2
2024-04-04T06:27:09.854Z,22.1
2024-04-04T06:32:40.326Z,22.1
2024-04-04T06:43:41.423Z,22.1
2024-04-04T06:49:11.890Z,22.1
2024-04-04T06:54:42.382Z,22.1
2024-04-04T07:00:11.864Z,22.1
2024-04-04T07:05:42.347Z,22.1
2024-04-04T07:11:11.828Z,22
2024-04-04T07:16:42.358Z,22
2024-04-04T07:22:12.786Z,22
2024-04-04T07:27:43.386Z,22
2024-04-04T07:33:13.845Z,22
2024-04-04T07:38:44.426Z,22
2024-04-04T07:49:45.481Z,22
2024-04-04T07:55:15.937Z,22
2024-04-04T08:00:45.542Z,22
2024-04-04T08:06:15.941Z,22
2024-04-04T08:22:46.456Z,21.9
2024-04-04T08:28:15.840Z,21.9
2024-04-04T08:33:46.321Z,21.9
2024-04-04T08:39:16.895Z,21.9
2024-04-04T08:44:47.399Z,21.9
2024-04-04T08:55:48.467Z,21.9
2024-04-04T09:01:29.969Z,22
2024-04-04T09:12:19.030Z,22
2024-04-04T09:17:49.501Z,22.1
2024-04-04T09:23:20.074Z,22.1
2024-04-04T09:28:50.570Z,22.1
2024-04-04T09:34:21.023Z,22.1
2024-04-04T09:39:51.632Z,22.1
2024-04-04T09:45:22.108Z,22.1
2024-04-04T09:50:51.596Z,22.1
2024-04-04T09:56:22.080Z,22.1
2024-04-04T10:07:22.039Z,22.1
2024-04-04T10:12:52.522Z,22
2024-04-04T10:18:22.972Z,22.1
2024-04-04T10:23:52.600Z,22
2024-04-04T10:29:30.860Z,22
2024-04-04T10:34:53.564Z,22
2024-04-04T10:40:23.045Z,22
2024-04-04T10:45:53.533Z,22
2024-04-04T10:51:24.009Z,22
2024-04-04T10:56:54.605Z,22
2024-04-04T11:07:54.566Z,22
2024-04-04T11:13:25.055Z,22
2024-04-04T11:18:56.079Z,22
2024-04-04T11:24:26.107Z,22
2024-04-04T11:29:56.564Z,22
2024-04-04T11:35:27.065Z,22
2024-04-04T11:40:57.651Z,22
2024-04-04T11:46:28.102Z,22
2024-04-04T11:57:29.202Z,22
2024-04-04T12:02:59.706Z,22
2024-04-04T12:08:30.328Z,22.1
2024-04-04T12:14:00.761Z,22.1
2024-04-04T12:19:31.226Z,22.1
2024-04-04T12:25:01.847Z,22.2
2024-04-04T12:30:32.331Z,22.2
2024-04-04T12:36:02.896Z,22.2
2024-04-04T12:47:02.912Z,22.2
2024-04-04T12:52:33.383Z,22.2
2024-04-04T12:58:03.861Z,22.2
2024-04-04T13:03:33.353Z,22.2
2024-04-04T13:09:03.820Z,22.2
2024-04-04T13:14:33.313Z,22.2
2024-04-04T13:20:03.808Z,22.2
2024-04-04T13:25:34.346Z,22.1
2024-04-04T13:31:04.954Z,22.1
2024-04-04T13:36:35.530Z,22.1
2024-04-04T13:42:05.889Z,22.1
2024-04-04T13:47:36.502Z,22.1
2024-04-04T13:53:06.953Z,22.1
2024-04-04T13:58:37.533Z,22.1
2024-04-04T14:09:38.500Z,22.1
2024-04-04T14:15:07.976Z,22.1
2024-04-04T14:20:38.445Z,22.1
2024-04-04T14:26:08.928Z,22.1
2024-04-04T14:31:38.439Z,22.1
2024-04-04T14:37:09.972Z,22
2024-04-04T14:42:38.415Z,22
2024-04-04T14:48:08.947Z,22
2024-04-04T14:53:39.421Z,22
2024-04-04T14:59:09.990Z,22
2024-04-04T15:04:40.527Z,22
2024-04-04T15:10:10.999Z,22
2024-04-04T15:15:41.552Z,22
2024-04-04T15:21:12.040Z,21.9
2024-04-04T15:26:42.603Z,22
2024-04-04T15:32:13.069Z,22
2024-04-04T15:37:43.549Z,22
2024-04-04T15:43:14.286Z,22
2024-04-04T15:48:44.776Z,22
2024-04-04T16:05:16.298Z,22
2024-04-04T16:10:46.803Z,22
2024-04-04T16:16:17.433Z,22
2024-04-04T16:21:47.865Z,22
2024-04-04T16:27:18.474Z,22
2024-04-04T16:32:48.959Z,22.1
2024-04-04T16:38:19.465Z,22.1
2024-04-04T16:43:50.100Z,22.1
2024-04-04T16:49:20.540Z,22
2024-04-04T16:54:50.990Z,22.1
2024-04-04T17:00:20.494Z,22.1
2024-04-04T17:05:50.956Z,22.1
2024-04-04T17:11:20.450Z,22.1
2024-04-04T17:16:50.933Z,22
2024-04-04T17:22:21.431Z,22
2024-04-04T17:27:50.906Z,22
2024-04-04T17:33:21.387Z,22
2024-04-04T17:38:51.860Z,22
2024-04-04T17:44:21.363Z,22
2024-04-04T17:49:51.843Z,22
2024-04-04T17:55:22.364Z,22
2024-04-04T18:00:52.908Z,22
2024-04-04T18:06:23.417Z,22
2024-04-04T18:11:54.009Z,22
2024-04-04T18:17:24.498Z,22
2024-04-04T18:22:54.950Z,22
2024-04-04T18:28:25.583Z,22
2024-04-04T18:33:56.163Z,21.9
2024-04-04T18:39:26.626Z,21.9
2024-04-04T18:44:57.216Z,22
2024-04-04T18:50:27.812Z,21.9
2024-04-04T18:55:58.156Z,21.9
2024-04-04T19:01:28.923Z,21.9
2024-04-04T19:06:59.343Z,21.9
2024-04-04T19:12:29.932Z,21.9
2024-04-04T19:18:00.396Z,21.9
2024-04-04T19:23:30.881Z,21.9
2024-04-04T19:29:00.375Z,21.9
2024-04-04T19:34:30.910Z,22
2024-04-04T19:40:01.337Z,22.1
2024-04-04T19:45:31.914Z,22.1
2024-04-04T19:51:02.401Z,22.1
2024-04-04T19:56:32.878Z,22.1
2024-04-04T20:02:03.481Z,22.1
2024-04-04T20:07:34.001Z,22.1
2024-04-04T20:13:03.770Z,22.1
2024-04-04T20:18:33.937Z,22.3
2024-04-04T20:29:34.983Z,22.3
2024-04-04T20:35:05.454Z,22.3
2024-04-04T20:40:36.042Z,22.3
2024-04-04T20:46:06.519Z,22.4
2024-04-04T20:51:36.985Z,22.3
2024-04-04T20:57:07.605Z,22.3
2024-04-04T21:02:38.089Z,22.3
2024-04-04T21:08:08.546Z,22.3
2024-04-04T21:13:39.124Z,22.3
2024-04-04T21:19:09.615Z,22.3
2024-04-04T21:24:40.144Z,22.3
2024-04-04T21:35:41.224Z,22.3
2024-04-04T21:41:10.733Z,22.3
2024-04-04T21:52:11.685Z,22.3
2024-04-04T21:57:42.272Z,22.4
2024-04-04T22:03:12.760Z,22.4
2024-04-04T22:08:45.746Z,22.4
2024-04-04T22:14:13.967Z,22.4
2024-04-04T22:19:44.448Z,22.4
2024-04-04T22:25:14.913Z,22.4
2024-04-04T22:30:44.436Z,22.4
2024-04-04T22:36:14.872Z,22.4
2024-04-04T22:41:45.366Z,22.4
2024-04-04T22:47:16.055Z,22.4
2024-04-04T22:52:46.560Z,22.4
2024-04-04T22:58:16.034Z,22.3
2024-04-04T23:03:46.481Z,22.4
2024-04-04T23:09:16.942Z,22.4
2024-04-04T23:14:46.456Z,22.4
2024-04-04T23:20:16.951Z,22.4
2024-04-04T23:25:47.390Z,22.4
2024-04-04T23:31:18.008Z,22.4
2024-04-04T23:42:18.971Z,22.4
2024-04-04T23:47:48.457Z,22.4
2024-04-04T23:53:19.060Z,22.4
2024-04-04T23:58:49.512Z,22.4
